Terminal Aerodrome Forecast
Issued by NWS

Home | Current Version | Previous Version | Text Only | Print | Product List | Glossary On
Versions: 1 2 3 4 5 6 7 8 9 10 11 12 13
000
FTAK31 PAJN 252300
TAFAGY
TAF
PAGY 252325Z 2600/2624 21016KT P6SM SCT150
     FM260400 21008KT P6SM SCT120
     FM260800 VRB03KT P6SM SCT100
     FM261900 22006KT P6SM SCT080
      AMD LTD TO CLD VIS AND WIND=

USA.gov is the U.S. government's official web portal to all federal, state and local government web resources and services.